createdAt,value
2018-04-14T06:22:40.213Z,67.20
2018-04-14T06:25:08.438Z,67.30
2018-04-14T06:27:36.528Z,66.40
2018-04-14T06:30:04.697Z,65.60
2018-04-14T06:32:32.804Z,65.60
2018-04-14T06:35:01.134Z,64.60
2018-04-14T06:37:29.984Z,64.50
2018-04-14T06:39:58.117Z,64.30
2018-04-14T06:42:27.004Z,60.10
2018-04-14T06:44:55.189Z,60.00
2018-04-14T06:47:24.148Z,62.60
2018-04-14T06:49:52.265Z,61.80
2018-04-14T06:52:20.405Z,59.90
2018-04-14T06:54:48.505Z,61.50
2018-04-14T06:57:16.576Z,60.10
2018-04-14T06:59:44.678Z,63.20
2018-04-14T07:02:12.764Z,58.90
2018-04-14T07:04:40.887Z,58.90
2018-04-14T07:07:09.013Z,59.40
2018-04-14T07:09:37.120Z,58.30
2018-04-14T07:12:05.212Z,55.40
2018-04-14T07:14:33.303Z,56.70
2018-04-14T07:17:01.404Z,56.70
2018-04-14T07:19:29.495Z,53.30
2018-04-14T07:21:57.597Z,54.10
2018-04-14T07:24:26.469Z,51.20
2018-04-14T07:26:54.557Z,51.00
2018-04-14T07:29:22.642Z,51.70
2018-04-14T07:31:50.753Z,54.30
2018-04-14T07:34:19.595Z,49.30
2018-04-14T07:36:47.701Z,49.20
2018-04-14T07:39:15.819Z,48.90
2018-04-14T07:41:44.696Z,49.40
2018-04-14T07:44:12.879Z,49.40
2018-04-14T07:46:40.969Z,51.20
2018-04-14T07:49:09.113Z,51.00
2018-04-14T07:51:37.319Z,50.70
2018-04-14T07:54:05.383Z,49.90
2018-04-14T07:56:33.558Z,49.50
2018-04-14T07:59:01.654Z,46.80
2018-04-14T08:01:29.736Z,45.40
2018-04-14T08:03:57.842Z,44.10
2018-04-14T08:06:25.916Z,42.80
2018-04-14T08:08:53.999Z,41.80
2018-04-14T08:11:22.137Z,44.40
2018-04-14T08:13:51.004Z,41.60
2018-04-14T08:16:19.088Z,41.40
2018-04-14T08:18:47.220Z,44.60
2018-04-14T08:21:16.116Z,44.00
2018-04-14T08:23:44.992Z,42.60
2018-04-14T08:26:13.103Z,42.50
2018-04-14T08:28:41.993Z,40.70
2018-04-14T08:31:10.192Z,40.70
2018-04-14T08:33:38.314Z,40.50
2018-04-14T08:36:06.402Z,43.90
2018-04-14T08:38:34.551Z,42.50
2018-04-14T08:41:02.700Z,42.60
2018-04-14T08:43:30.812Z,43.20
2018-04-14T08:45:58.906Z,44.30
2018-04-14T08:48:27.777Z,43.40
2018-04-14T08:50:55.873Z,43.30
2018-04-14T08:53:23.964Z,41.00
2018-04-14T08:55:52.129Z,41.80
2018-04-14T08:58:20.234Z,41.40
2018-04-14T09:00:48.340Z,42.30
2018-04-14T09:03:17.175Z,41.30
2018-04-14T09:05:45.345Z,41.20
2018-04-14T09:08:13.435Z,42.90
2018-04-14T09:10:41.506Z,45.90
2018-04-14T09:13:09.633Z,47.10
2018-04-14T09:15:37.772Z,48.50
2018-04-14T09:18:05.853Z,46.50
2018-04-14T09:20:34.699Z,44.60
2018-04-14T09:23:02.801Z,44.50
2018-04-14T09:25:30.899Z,44.70
2018-04-14T09:27:58.965Z,49.50
2018-04-14T09:30:27.148Z,48.20
2018-04-14T09:32:55.233Z,48.70
2018-04-14T09:35:23.371Z,48.60
2018-04-14T09:37:52.294Z,46.00
2018-04-14T09:40:20.388Z,45.90
2018-04-14T09:42:48.458Z,43.80
2018-04-14T09:45:16.630Z,46.00
2018-04-14T09:47:45.501Z,48.30
2018-04-14T09:50:13.614Z,48.20
2018-04-14T09:52:42.482Z,49.40
2018-04-14T09:55:10.592Z,49.40
2018-04-14T09:57:39.481Z,47.00
2018-04-14T10:00:07.590Z,47.00
2018-04-14T10:02:42.294Z,52.70
2018-04-14T10:05:10.397Z,52.60
2018-04-14T10:07:38.527Z,51.60
2018-04-14T10:10:06.624Z,50.90
2018-04-14T10:12:34.711Z,51.50
2018-04-14T10:15:02.814Z,52.20
2018-04-14T10:17:30.919Z,50.50
2018-04-14T10:19:59.038Z,50.70
2018-04-14T10:22:27.185Z,46.80
2018-04-14T10:24:55.264Z,47.20
2018-04-14T10:27:23.360Z,49.00
2018-04-14T10:29:51.489Z,50.50
2018-04-14T10:32:19.571Z,51.90
2018-04-14T10:34:47.666Z,50.50
2018-04-14T10:37:15.779Z,50.10
2018-04-14T10:39:43.839Z,48.60
2018-04-14T10:42:11.966Z,46.20
2018-04-14T10:44:40.109Z,47.20
2018-04-14T10:47:08.225Z,44.00
2018-04-14T10:49:36.358Z,42.40
2018-04-14T10:52:04.558Z,43.20
2018-04-14T10:54:32.740Z,40.00
2018-04-14T10:57:00.887Z,42.60
2018-04-14T10:59:29.002Z,41.50
2018-04-14T11:01:57.103Z,41.30
2018-04-14T11:04:25.241Z,42.50
2018-04-14T11:06:53.311Z,40.80
2018-04-14T11:09:21.432Z,43.10
2018-04-14T11:11:50.346Z,46.90
2018-04-14T11:14:19.182Z,47.00
2018-04-14T11:16:47.267Z,47.00
2018-04-14T11:19:15.376Z,44.80
2018-04-14T11:21:43.568Z,46.50
2018-04-14T11:24:11.674Z,46.60
2018-04-14T11:26:40.543Z,48.00
2018-04-14T11:29:08.709Z,48.00
2018-04-14T11:31:36.786Z,44.50
2018-04-14T11:34:04.872Z,43.10
2018-04-14T11:36:33.023Z,42.30
2018-04-14T11:39:01.126Z,43.50
2018-04-14T11:41:29.207Z,45.00
2018-04-14T11:43:57.341Z,47.10
2018-04-14T11:46:25.437Z,47.20
2018-04-14T11:48:53.593Z,48.60
2018-04-14T11:51:21.781Z,48.80
2018-04-14T11:53:49.847Z,50.00
2018-04-14T11:56:17.933Z,47.40
2018-04-14T11:58:46.061Z,46.80
2018-04-14T12:01:14.156Z,46.90
2018-04-14T12:03:43.097Z,46.00
2018-04-14T12:06:11.164Z,45.90
2018-04-14T12:08:39.286Z,46.90
2018-04-14T12:11:07.416Z,46.70
2018-04-14T12:13:36.276Z,45.20
2018-04-14T12:16:04.455Z,45.20
2018-04-14T12:18:32.519Z,47.20
2018-04-14T12:21:00.599Z,48.50
2018-04-14T12:23:28.721Z,48.40
2018-04-14T12:25:56.828Z,48.60
2018-04-14T12:28:25.037Z,48.40
2018-04-14T12:30:53.083Z,49.40
2018-04-14T12:33:21.191Z,47.00
2018-04-14T12:35:49.274Z,47.00
2018-04-14T12:38:17.374Z,47.30
2018-04-14T12:40:46.281Z,42.90
2018-04-14T12:43:15.159Z,39.70
2018-04-14T12:45:43.272Z,39.70
2018-04-14T12:48:12.131Z,42.10
2018-04-14T12:50:40.248Z,42.10
2018-04-14T12:53:09.067Z,43.10
2018-04-14T12:55:37.181Z,43.00
2018-04-14T12:58:05.292Z,39.50
2018-04-14T13:00:33.430Z,41.50
2018-04-14T13:03:01.539Z,44.90
2018-04-14T13:05:29.640Z,43.50
2018-04-14T13:07:57.745Z,38.20
2018-04-14T13:10:25.842Z,42.60
2018-04-14T13:12:54.739Z,42.00
2018-04-14T13:15:22.871Z,41.10
2018-04-14T13:17:51.068Z,43.10
2018-04-14T13:20:19.167Z,43.60
2018-04-14T13:22:47.268Z,41.90
2018-04-14T13:25:15.384Z,42.10
2018-04-14T13:27:44.251Z,42.40
2018-04-14T13:30:12.332Z,42.30
2018-04-14T13:32:40.505Z,41.20
2018-04-14T13:35:08.600Z,42.50
2018-04-14T13:37:36.743Z,43.10
2018-04-14T13:40:04.777Z,42.00
2018-04-14T13:42:32.861Z,43.50
2018-04-14T13:45:00.952Z,42.30
2018-04-14T13:47:29.046Z,41.70
2018-04-14T13:49:57.251Z,41.60
2018-04-14T13:52:26.119Z,38.30
2018-04-14T13:54:54.342Z,38.40
2018-04-14T13:57:22.440Z,38.90
2018-04-14T13:59:50.574Z,41.40
2018-04-14T14:02:18.757Z,43.90
2018-04-14T14:04:46.868Z,43.90
2018-04-14T14:07:15.003Z,43.20
2018-04-14T14:09:43.067Z,41.60
2018-04-14T14:12:11.183Z,37.30
2018-04-14T14:14:39.282Z,38.20
2018-04-14T14:17:07.392Z,36.70
2018-04-14T14:19:36.521Z,41.50
2018-04-14T14:22:05.388Z,41.00
2018-04-14T14:24:33.491Z,41.00
2018-04-14T14:27:02.419Z,38.10
2018-04-14T14:29:30.548Z,38.10
2018-04-14T14:31:58.691Z,37.90
2018-04-14T14:34:26.769Z,37.00
2018-04-14T14:36:55.640Z,35.60
2018-04-14T14:39:23.736Z,35.60
2018-04-14T14:41:51.915Z,37.70
2018-04-14T14:44:20.085Z,40.30
2018-04-14T14:46:48.279Z,40.20
2018-04-14T14:49:16.384Z,42.90
2018-04-14T14:51:44.460Z,42.60
2018-04-14T14:54:12.643Z,43.60
2018-04-14T14:56:40.760Z,41.50
2018-04-14T14:59:09.651Z,42.00
2018-04-14T15:01:37.737Z,42.00
2018-04-14T15:04:05.927Z,42.70
2018-04-14T15:06:34.749Z,41.60
2018-04-14T15:09:02.857Z,41.50
2018-04-14T15:11:30.997Z,41.80
2018-04-14T15:13:59.101Z,40.90
2018-04-14T15:16:27.247Z,41.80
2018-04-14T15:18:56.887Z,40.60
2018-04-14T15:21:25.777Z,39.80
2018-04-14T15:23:53.977Z,39.80
2018-04-14T15:26:22.065Z,39.10
2018-04-14T15:28:51.076Z,40.10
2018-04-14T15:31:19.191Z,40.10
2018-04-14T15:33:47.297Z,38.00
2018-04-14T15:36:15.392Z,38.00
2018-04-14T15:38:43.499Z,40.20
2018-04-14T15:41:12.389Z,40.20
2018-04-14T15:43:40.473Z,40.20
2018-04-14T15:46:08.572Z,38.80
2018-04-14T15:48:37.535Z,39.70
2018-04-14T15:51:05.600Z,39.60
2018-04-14T15:53:33.975Z,38.20
2018-04-14T15:56:02.355Z,36.40
2018-04-14T15:58:31.515Z,37.80
2018-04-14T16:00:59.606Z,37.70
2018-04-14T16:03:27.696Z,36.50
2018-04-14T16:05:55.798Z,36.60
2018-04-14T16:08:23.961Z,36.80
2018-04-14T16:10:52.055Z,38.10
2018-04-14T16:13:20.157Z,40.90
2018-04-14T16:15:48.303Z,43.40
2018-04-14T16:18:16.467Z,41.50
2018-04-14T16:20:44.560Z,42.50
2018-04-14T16:23:12.713Z,42.70
2018-04-14T16:25:41.575Z,45.50
2018-04-14T16:28:09.672Z,45.40
2018-04-14T16:30:37.762Z,45.30
2018-04-14T16:33:05.904Z,46.10
2018-04-14T16:35:34.012Z,45.80
2018-04-14T16:38:02.118Z,45.60
2018-04-14T16:40:30.228Z,45.70
2018-04-14T16:42:59.094Z,47.30
2018-04-14T16:45:27.175Z,47.30
2018-04-14T16:47:55.257Z,48.00
2018-04-14T16:50:23.377Z,48.30
2018-04-14T16:52:52.276Z,48.60
2018-04-14T16:55:20.371Z,48.60
2018-04-14T16:57:48.476Z,48.90
2018-04-14T17:00:16.614Z,48.00
2018-04-14T17:02:44.721Z,48.00
2018-04-14T17:05:13.636Z,48.90
2018-04-14T17:07:42.504Z,49.20
2018-04-14T17:10:10.604Z,49.10
2018-04-14T17:12:38.792Z,49.40
2018-04-14T17:15:06.961Z,50.60
2018-04-14T17:17:35.793Z,50.80
2018-04-14T17:20:04.662Z,50.90
2018-04-14T17:22:32.738Z,50.80
2018-04-14T17:25:00.842Z,51.30
2018-04-14T17:27:29.028Z,52.80
2018-04-14T17:29:57.172Z,52.50
2018-04-14T17:32:25.275Z,52.60
2018-04-14T17:34:53.399Z,53.40
2018-04-14T17:37:21.517Z,54.20
2018-04-14T17:39:49.658Z,54.80
2018-04-14T17:42:17.812Z,54.20
2018-04-14T17:44:45.895Z,54.90
2018-04-14T17:47:13.992Z,55.50
2018-04-14T17:49:42.099Z,55.80
2018-04-14T17:52:10.263Z,56.20
2018-04-14T17:54:38.391Z,57.00
2018-04-14T17:57:07.330Z,58.70
2018-04-14T17:59:35.431Z,58.60
2018-04-14T18:02:03.524Z,59.40
2018-04-14T18:04:31.637Z,60.30
2018-04-14T18:06:59.745Z,60.90
2018-04-14T18:09:27.884Z,62.40
2018-04-14T18:11:55.984Z,63.00
2018-04-14T18:14:24.076Z,64.10
2018-04-14T18:16:52.987Z,65.50
2018-04-14T18:19:21.113Z,65.50
2018-04-14T18:21:49.283Z,67.00
2018-04-14T18:24:18.165Z,68.30
2018-04-14T18:26:47.012Z,69.20
2018-04-14T18:29:15.123Z,69.00
2018-04-14T18:31:43.301Z,69.80
2018-04-14T18:34:11.406Z,70.10
2018-04-14T18:36:39.496Z,70.80
2018-04-14T18:39:07.675Z,71.30
2018-04-14T18:41:35.859Z,71.20
2018-04-14T18:44:03.947Z,72.30
2018-04-14T18:46:32.051Z,73.00
2018-04-14T18:49:00.207Z,73.20
2018-04-14T18:51:28.311Z,74.70
2018-04-14T18:53:56.440Z,75.60
2018-04-14T18:56:24.590Z,77.20
2018-04-14T18:58:52.856Z,77.00
2018-04-14T19:01:21.047Z,77.50
2018-04-14T19:03:49.204Z,78.20
2018-04-14T19:06:17.308Z,78.80
2018-04-14T19:08:45.811Z,79.70
2018-04-14T19:11:13.970Z,80.30
2018-04-14T19:56:02.698Z,90.30
2018-04-14T19:58:31.600Z,90.80
2018-04-14T20:01:07.760Z,91.20
2018-04-14T20:03:36.770Z,91.20
2018-04-14T20:06:04.907Z,91.10
2018-04-14T20:08:33.000Z,91.30
2018-04-14T20:11:01.263Z,91.20
2018-04-14T20:13:29.357Z,91.20
2018-04-14T20:15:57.473Z,91.40
2018-04-14T20:18:25.593Z,91.30
2018-04-14T20:20:54.705Z,91.50
2018-04-14T20:23:23.643Z,91.50
2018-04-14T20:25:51.741Z,91.40
2018-04-14T20:28:19.859Z,91.60
2018-04-14T20:30:48.200Z,91.90
2018-04-14T20:33:16.272Z,92.20
2018-04-14T20:35:44.562Z,92.30
2018-04-14T20:38:12.698Z,92.50
2018-04-14T20:40:42.352Z,92.70
2018-04-14T20:43:10.472Z,92.60
2018-04-14T20:45:38.552Z,92.80
2018-04-14T20:48:06.775Z,93.60
2018-04-14T20:50:34.867Z,93.70
2018-04-14T20:53:03.776Z,93.90
2018-04-14T20:55:32.652Z,94.00
2018-04-14T20:58:00.760Z,94.00
2018-04-14T21:00:29.694Z,94.40
2018-04-14T21:02:57.821Z,94.40
2018-04-14T21:05:25.915Z,94.60
2018-04-14T21:07:54.012Z,94.80
2018-04-14T21:10:22.125Z,95.00
2018-04-14T21:12:51.003Z,95.00
2018-04-14T21:15:19.938Z,95.40
2018-04-14T21:17:48.039Z,95.10
2018-04-14T21:20:16.144Z,95.60
2018-04-14T21:22:44.334Z,95.80
2018-04-14T21:25:12.484Z,95.70
2018-04-14T21:27:40.593Z,96.10
2018-04-14T21:30:08.752Z,95.80
2018-04-14T21:32:36.839Z,95.70
2018-04-14T21:35:04.977Z,95.90
2018-04-14T21:37:33.101Z,96.00
2018-04-14T21:40:01.956Z,96.40
2018-04-14T21:42:30.067Z,96.30
2018-04-14T21:44:58.179Z,96.70
2018-04-14T21:47:26.268Z,96.80
2018-04-14T21:49:54.372Z,97.00
2018-04-14T21:52:22.480Z,97.20
2018-04-14T21:54:50.575Z,97.20
2018-04-14T21:57:18.677Z,97.10
2018-04-14T21:59:46.795Z,97.20
2018-04-14T22:02:14.876Z,97.20
2018-04-14T22:04:42.986Z,97.40
2018-04-14T22:07:11.084Z,97.60
2018-04-14T22:09:39.170Z,97.60
2018-04-14T22:12:07.280Z,98.00
2018-04-14T22:14:35.412Z,97.80
2018-04-14T22:17:03.520Z,98.00
2018-04-14T22:19:31.608Z,98.00
2018-04-14T22:21:59.727Z,98.20
2018-04-14T22:24:27.850Z,98.20
2018-04-14T22:26:55.955Z,98.20
2018-04-14T22:29:24.056Z,98.50
2018-04-14T22:31:52.157Z,98.50
2018-04-14T22:34:20.261Z,98.90
2018-04-14T22:36:49.145Z,98.60
2018-04-14T22:39:17.256Z,98.50
2018-04-14T22:41:46.128Z,98.40
2018-04-14T22:44:14.235Z,98.40
2018-04-14T22:46:43.155Z,98.20
2018-04-14T22:49:11.263Z,98.10
2018-04-14T22:51:39.372Z,98.30
2018-04-14T22:54:07.481Z,98.20
2018-04-14T22:56:35.593Z,98.40
2018-04-14T22:59:04.486Z,98.40
2018-04-14T23:01:33.348Z,98.70
2018-04-14T23:04:01.437Z,98.70
2018-04-14T23:06:29.553Z,98.70
2018-04-14T23:08:58.426Z,98.80
2018-04-14T23:11:26.502Z,98.80
2018-04-14T23:13:54.596Z,99.10
2018-04-14T23:16:22.700Z,98.80
2018-04-14T23:18:51.620Z,99.00
2018-04-14T23:21:20.538Z,99.00
2018-04-14T23:23:48.634Z,99.30
2018-04-14T23:26:16.793Z,99.20
2018-04-14T23:28:44.926Z,99.00
2018-04-14T23:31:13.053Z,99.10
2018-04-14T23:33:41.217Z,99.10
2018-04-14T23:36:09.329Z,99.20
2018-04-14T23:38:38.218Z,99.00
2018-04-14T23:41:06.325Z,99.00
2018-04-14T23:43:35.222Z,99.30
2018-04-14T23:46:04.095Z,99.40
2018-04-14T23:48:32.246Z,99.40
2018-04-14T23:51:00.347Z,99.40
2018-04-14T23:53:28.477Z,99.40
2018-04-14T23:55:57.347Z,99.30
2018-04-14T23:58:25.467Z,99.30
